Terminal Aerodrome Forecast
Issued by NWS Denver/Boulder, CO

Home | Current Version | Previous Version | Text Only | Print | Product List | Glossary On
Versions: 1 2 3 4 5 6 7 8 9 10 11 12 13 14 15 16 17 18 19 20 21 22 23 24 25 26 27 28 29 30 31 32 33 34 35 36 37
000
FTUS45 KBOU 220349 AAC
TAFDEN
TAF AMD
KDEN 220349Z 2204/2306 01013G21KT P6SM VCSH SCT045 BKN070 BKN100
      TEMPO 2204/2206 5SM -RA BKN040 OVC060
     FM220800 28008KT P6SM VCSH SCT045 BKN060 OVC080
     FM221100 21007KT P6SM VCSH FEW050 BKN070 OVC110
     FM221700 04006KT P6SM SCT080 BKN120
     FM222300 10007KT P6SM SCT120 BKN200=

USA.gov is the U.S. government's official web portal to all federal, state and local government web resources and services.